Terminal Aerodrome Forecast
Issued by NWS Sterling, VA

Home | Current Version | Previous Version | Text Only | Print | Product List | Glossary On
Versions: 1 2 3 4 5 6 7 8 9 10 11 12 13 14 15 16 17 18 19 20 21 22 23 24 25
884
FTUS41 KLWX 161139
TAFDCA
TAF
KDCA 161139Z 1612/1718 22004KT P6SM FEW060
     FM161500 23010KT P6SM BKN090
     FM161900 24010G18KT P6SM SCT100
     FM162100 23008KT P6SM SCT120
     FM170200 25004KT P6SM FEW250
     FM171700 16004KT P6SM BKN150=

USA.gov is the U.S. government's official web portal to all federal, state and local government web resources and services.